sensor_id;sensor_type;location;lat;lon;timestamp;P1;durP1;ratioP1;P2;durP2;ratioP2
4317;SDS011;2172;53.576;9.934;2023-09-19T00:01:06;3.20;;;2.50;;
4317;SDS011;2172;53.576;9.934;2023-09-19T00:03:38;2.90;;;2.00;;
4317;SDS011;2172;53.576;9.934;2023-09-19T00:06:07;3.10;;;2.07;;
4317;SDS011;2172;53.576;9.934;2023-09-19T00:08:35;3.97;;;2.50;;
4317;SDS011;2172;53.576;9.934;2023-09-19T00:11:03;2.40;;;2.17;;
4317;SDS011;2172;53.576;9.934;2023-09-19T00:13:31;5.97;;;2.77;;
4317;SDS011;2172;53.576;9.934;2023-09-19T00:16:03;5.10;;;2.70;;
4317;SDS011;2172;53.576;9.934;2023-09-19T00:18:35;3.10;;;2.73;;
4317;SDS011;2172;53.576;9.934;2023-09-19T00:21:04;2.83;;;2.40;;
4317;SDS011;2172;53.576;9.934;2023-09-19T00:23:33;3.60;;;2.40;;
4317;SDS011;2172;53.576;9.934;2023-09-19T00:26:00;5.03;;;2.53;;
4317;SDS011;2172;53.576;9.934;2023-09-19T00:28:29;2.63;;;2.23;;
4317;SDS011;2172;53.576;9.934;2023-09-19T00:30:57;5.50;;;2.83;;
4317;SDS011;2172;53.576;9.934;2023-09-19T00:33:26;3.20;;;2.90;;
4317;SDS011;2172;53.576;9.934;2023-09-19T00:35:56;3.83;;;2.50;;
4317;SDS011;2172;53.576;9.934;2023-09-19T00:38:25;4.47;;;3.00;;
4317;SDS011;2172;53.576;9.934;2023-09-19T00:40:53;5.13;;;3.13;;
4317;SDS011;2172;53.576;9.934;2023-09-19T00:43:22;7.13;;;3.17;;
4317;SDS011;2172;53.576;9.934;2023-09-19T00:45:52;4.77;;;3.10;;
4317;SDS011;2172;53.576;9.934;2023-09-19T00:48:21;5.73;;;2.93;;
4317;SDS011;2172;53.576;9.934;2023-09-19T00:50:50;4.67;;;3.30;;
4317;SDS011;2172;53.576;9.934;2023-09-19T00:53:21;4.87;;;2.90;;
4317;SDS011;2172;53.576;9.934;2023-09-19T00:55:50;4.50;;;3.57;;
4317;SDS011;2172;53.576;9.934;2023-09-19T00:58:18;5.50;;;3.60;;
4317;SDS011;2172;53.576;9.934;2023-09-19T01:00:46;6.57;;;3.20;;
4317;SDS011;2172;53.576;9.934;2023-09-19T01:03:14;5.13;;;3.27;;
4317;SDS011;2172;53.576;9.934;2023-09-19T01:05:42;4.07;;;3.47;;
4317;SDS011;2172;53.576;9.934;2023-09-19T01:08:10;6.43;;;3.90;;
4317;SDS011;2172;53.576;9.934;2023-09-19T01:10:41;4.27;;;3.80;;
4317;SDS011;2172;53.576;9.934;2023-09-19T01:13:20;6.30;;;4.43;;
4317;SDS011;2172;53.576;9.934;2023-09-19T01:15:51;5.73;;;4.13;;
4317;SDS011;2172;53.576;9.934;2023-09-19T01:18:27;6.80;;;3.90;;
4317;SDS011;2172;53.576;9.934;2023-09-19T01:21:05;6.00;;;3.67;;
4317;SDS011;2172;53.576;9.934;2023-09-19T01:23:41;4.80;;;3.80;;
4317;SDS011;2172;53.576;9.934;2023-09-19T01:26:38;5.80;;;4.23;;
4317;SDS011;2172;53.576;9.934;2023-09-19T01:29:21;5.30;;;3.93;;
4317;SDS011;2172;53.576;9.934;2023-09-19T01:32:01;6.10;;;4.33;;
4317;SDS011;2172;53.576;9.934;2023-09-19T01:34:42;7.30;;;3.70;;
4317;SDS011;2172;53.576;9.934;2023-09-19T01:37:12;5.77;;;3.47;;
4317;SDS011;2172;53.576;9.934;2023-09-19T01:39:44;6.13;;;3.40;;
4317;SDS011;2172;53.576;9.934;2023-09-19T01:42:16;4.17;;;3.17;;
4317;SDS011;2172;53.576;9.934;2023-09-19T01:44:50;6.67;;;2.93;;
4317;SDS011;2172;53.576;9.934;2023-09-19T01:47:26;4.73;;;3.10;;
4317;SDS011;2172;53.576;9.934;2023-09-19T01:49:55;4.70;;;3.10;;
4317;SDS011;2172;53.576;9.934;2023-09-19T01:52:29;5.47;;;2.90;;
4317;SDS011;2172;53.576;9.934;2023-09-19T01:55:02;4.63;;;2.57;;
4317;SDS011;2172;53.576;9.934;2023-09-19T01:57:35;3.90;;;2.30;;
4317;SDS011;2172;53.576;9.934;2023-09-19T02:00:09;4.07;;;2.70;;
4317;SDS011;2172;53.576;9.934;2023-09-19T02:02:43;6.90;;;2.70;;
4317;SDS011;2172;53.576;9.934;2023-09-19T02:05:13;5.20;;;2.53;;
4317;SDS011;2172;53.576;9.934;2023-09-19T02:07:49;6.30;;;2.57;;
4317;SDS011;2172;53.576;9.934;2023-09-19T02:10:18;3.80;;;3.23;;
4317;SDS011;2172;53.576;9.934;2023-09-19T02:12:45;4.73;;;3.10;;
4317;SDS011;2172;53.576;9.934;2023-09-19T02:15:13;3.40;;;2.80;;
4317;SDS011;2172;53.576;9.934;2023-09-19T02:17:43;4.87;;;3.30;;
4317;SDS011;2172;53.576;9.934;2023-09-19T02:20:11;6.00;;;3.70;;
4317;SDS011;2172;53.576;9.934;2023-09-19T02:22:39;4.03;;;3.53;;
4317;SDS011;2172;53.576;9.934;2023-09-19T02:25:07;4.60;;;4.00;;
4317;SDS011;2172;53.576;9.934;2023-09-19T02:27:35;5.10;;;4.30;;
4317;SDS011;2172;53.576;9.934;2023-09-19T02:30:03;7.00;;;4.77;;
4317;SDS011;2172;53.576;9.934;2023-09-19T02:32:32;7.43;;;5.30;;
4317;SDS011;2172;53.576;9.934;2023-09-19T02:35:06;5.83;;;5.20;;
4317;SDS011;2172;53.576;9.934;2023-09-19T02:37:36;6.90;;;5.43;;
4317;SDS011;2172;53.576;9.934;2023-09-19T02:40:04;11.83;;;5.30;;
4317;SDS011;2172;53.576;9.934;2023-09-19T02:42:44;6.13;;;5.50;;
4317;SDS011;2172;53.576;9.934;2023-09-19T02:45:15;6.63;;;5.30;;
4317;SDS011;2172;53.576;9.934;2023-09-19T02:47:44;7.57;;;5.40;;
4317;SDS011;2172;53.576;9.934;2023-09-19T02:50:13;7.73;;;4.40;;
4317;SDS011;2172;53.576;9.934;2023-09-19T02:52:43;7.17;;;4.80;;
4317;SDS011;2172;53.576;9.934;2023-09-19T02:55:12;7.57;;;4.30;;
4317;SDS011;2172;53.576;9.934;2023-09-19T02:57:45;6.40;;;5.10;;
4317;SDS011;2172;53.576;9.934;2023-09-19T03:00:13;6.40;;;4.00;;
4317;SDS011;2172;53.576;9.934;2023-09-19T03:02:41;8.27;;;3.67;;
4317;SDS011;2172;53.576;9.934;2023-09-19T03:05:10;4.90;;;3.77;;
4317;SDS011;2172;53.576;9.934;2023-09-19T03:07:39;12.03;;;4.20;;
4317;SDS011;2172;53.576;9.934;2023-09-19T03:10:08;6.83;;;4.30;;
4317;SDS011;2172;53.576;9.934;2023-09-19T03:12:36;6.27;;;4.10;;
4317;SDS011;2172;53.576;9.934;2023-09-19T03:15:06;8.83;;;4.60;;
4317;SDS011;2172;53.576;9.934;2023-09-19T03:17:35;3.53;;;3.03;;
4317;SDS011;2172;53.576;9.934;2023-09-19T03:20:03;5.20;;;3.43;;
4317;SDS011;2172;53.576;9.934;2023-09-19T03:22:35;4.50;;;3.07;;
4317;SDS011;2172;53.576;9.934;2023-09-19T03:25:04;8.33;;;3.57;;
4317;SDS011;2172;53.576;9.934;2023-09-19T03:27:35;5.40;;;3.83;;
4317;SDS011;2172;53.576;9.934;2023-09-19T03:30:03;7.63;;;3.83;;
4317;SDS011;2172;53.576;9.934;2023-09-19T03:32:34;5.03;;;3.40;;
4317;SDS011;2172;53.576;9.934;2023-09-19T03:35:02;5.43;;;2.93;;
4317;SDS011;2172;53.576;9.934;2023-09-19T03:37:31;4.10;;;3.33;;
4317;SDS011;2172;53.576;9.934;2023-09-19T03:40:00;5.60;;;3.30;;
4317;SDS011;2172;53.576;9.934;2023-09-19T03:42:31;8.27;;;3.57;;
4317;SDS011;2172;53.576;9.934;2023-09-19T03:45:02;4.23;;;3.57;;
4317;SDS011;2172;53.576;9.934;2023-09-19T03:47:30;4.43;;;3.90;;
4317;SDS011;2172;53.576;9.934;2023-09-19T03:50:00;5.50;;;3.60;;
4317;SDS011;2172;53.576;9.934;2023-09-19T03:52:29;7.40;;;3.27;;
4317;SDS011;2172;53.576;9.934;2023-09-19T03:54:56;11.37;;;3.50;;
4317;SDS011;2172;53.576;9.934;2023-09-19T03:57:25;4.40;;;3.00;;
4317;SDS011;2172;53.576;9.934;2023-09-19T03:59:53;7.37;;;3.87;;
4317;SDS011;2172;53.576;9.934;2023-09-19T04:02:21;4.33;;;3.47;;
4317;SDS011;2172;53.576;9.934;2023-09-19T04:04:50;8.50;;;2.90;;
4317;SDS011;2172;53.576;9.934;2023-09-19T04:07:18;4.63;;;2.90;;
4317;SDS011;2172;53.576;9.934;2023-09-19T04:09:47;4.27;;;2.80;;
4317;SDS011;2172;53.576;9.934;2023-09-19T04:12:15;5.73;;;2.60;;
4317;SDS011;2172;53.576;9.934;2023-09-19T04:14:45;6.50;;;2.80;;
4317;SDS011;2172;53.576;9.934;2023-09-19T04:17:31;4.93;;;2.60;;
4317;SDS011;2172;53.576;9.934;2023-09-19T04:19:59;5.80;;;3.00;;
4317;SDS011;2172;53.576;9.934;2023-09-19T04:22:26;4.63;;;2.57;;
4317;SDS011;2172;53.576;9.934;2023-09-19T04:24:54;3.13;;;2.40;;
4317;SDS011;2172;53.576;9.934;2023-09-19T04:27:22;5.37;;;2.73;;
4317;SDS011;2172;53.576;9.934;2023-09-19T04:29:51;7.30;;;2.50;;
4317;SDS011;2172;53.576;9.934;2023-09-19T04:32:18;8.03;;;2.60;;
4317;SDS011;2172;53.576;9.934;2023-09-19T04:34:46;7.90;;;2.90;;
4317;SDS011;2172;53.576;9.934;2023-09-19T04:37:15;6.63;;;2.10;;
4317;SDS011;2172;53.576;9.934;2023-09-19T04:39:43;8.67;;;3.13;;
4317;SDS011;2172;53.576;9.934;2023-09-19T04:42:12;5.27;;;2.10;;
4317;SDS011;2172;53.576;9.934;2023-09-19T04:44:40;5.70;;;2.47;;
4317;SDS011;2172;53.576;9.934;2023-09-19T04:47:09;20.43;;;3.37;;
4317;SDS011;2172;53.576;9.934;2023-09-19T04:49:37;7.13;;;2.90;;
4317;SDS011;2172;53.576;9.934;2023-09-19T04:52:06;4.87;;;2.67;;
4317;SDS011;2172;53.576;9.934;2023-09-19T04:54:33;4.57;;;2.47;;
4317;SDS011;2172;53.576;9.934;2023-09-19T04:57:01;7.33;;;3.43;;
4317;SDS011;2172;53.576;9.934;2023-09-19T04:59:30;9.17;;;2.70;;
4317;SDS011;2172;53.576;9.934;2023-09-19T05:01:58;6.13;;;2.13;;
4317;SDS011;2172;53.576;9.934;2023-09-19T05:04:27;4.23;;;2.40;;
4317;SDS011;2172;53.576;9.934;2023-09-19T05:06:54;7.97;;;2.70;;
4317;SDS011;2172;53.576;9.934;2023-09-19T05:09:22;11.23;;;2.13;;
4317;SDS011;2172;53.576;9.934;2023-09-19T05:11:50;3.07;;;2.30;;
4317;SDS011;2172;53.576;9.934;2023-09-19T05:14:18;6.90;;;2.37;;
4317;SDS011;2172;53.576;9.934;2023-09-19T05:16:46;4.87;;;2.70;;
4317;SDS011;2172;53.576;9.934;2023-09-19T05:19:13;6.33;;;2.40;;
4317;SDS011;2172;53.576;9.934;2023-09-19T05:21:43;5.50;;;2.33;;
4317;SDS011;2172;53.576;9.934;2023-09-19T05:24:12;9.57;;;2.70;;
4317;SDS011;2172;53.576;9.934;2023-09-19T05:26:42;11.37;;;2.57;;
4317;SDS011;2172;53.576;9.934;2023-09-19T05:29:11;8.33;;;3.60;;
4317;SDS011;2172;53.576;9.934;2023-09-19T05:31:38;4.33;;;2.43;;
4317;SDS011;2172;53.576;9.934;2023-09-19T05:34:08;6.63;;;2.60;;
4317;SDS011;2172;53.576;9.934;2023-09-19T05:36:36;7.23;;;2.87;;
4317;SDS011;2172;53.576;9.934;2023-09-19T05:39:06;7.43;;;2.70;;
4317;SDS011;2172;53.576;9.934;2023-09-19T05:41:34;8.40;;;3.40;;
4317;SDS011;2172;53.576;9.934;2023-09-19T05:44:05;5.03;;;2.77;;
4317;SDS011;2172;53.576;9.934;2023-09-19T05:46:33;6.27;;;2.67;;
4317;SDS011;2172;53.576;9.934;2023-09-19T05:49:00;10.33;;;2.90;;
4317;SDS011;2172;53.576;9.934;2023-09-19T05:51:28;8.57;;;2.87;;
4317;SDS011;2172;53.576;9.934;2023-09-19T05:53:56;6.23;;;3.00;;
4317;SDS011;2172;53.576;9.934;2023-09-19T05:56:25;6.43;;;2.97;;
4317;SDS011;2172;53.576;9.934;2023-09-19T05:58:52;5.87;;;2.60;;
4317;SDS011;2172;53.576;9.934;2023-09-19T06:01:20;13.20;;;2.97;;
4317;SDS011;2172;53.576;9.934;2023-09-19T06:03:50;4.97;;;2.10;;
4317;SDS011;2172;53.576;9.934;2023-09-19T06:06:18;5.07;;;2.80;;
4317;SDS011;2172;53.576;9.934;2023-09-19T06:08:46;7.33;;;2.80;;
4317;SDS011;2172;53.576;9.934;2023-09-19T06:11:15;5.97;;;2.53;;
4317;SDS011;2172;53.576;9.934;2023-09-19T06:13:47;7.17;;;2.33;;
4317;SDS011;2172;53.576;9.934;2023-09-19T06:16:15;7.40;;;2.43;;
4317;SDS011;2172;53.576;9.934;2023-09-19T06:18:45;7.67;;;2.90;;
4317;SDS011;2172;53.576;9.934;2023-09-19T06:21:12;6.93;;;3.10;;
4317;SDS011;2172;53.576;9.934;2023-09-19T06:23:40;3.53;;;2.20;;
4317;SDS011;2172;53.576;9.934;2023-09-19T06:26:25;13.33;;;3.30;;
4317;SDS011;2172;53.576;9.934;2023-09-19T06:28:55;8.97;;;3.53;;
4317;SDS011;2172;53.576;9.934;2023-09-19T06:31:25;7.80;;;2.60;;
4317;SDS011;2172;53.576;9.934;2023-09-19T06:33:52;4.87;;;2.50;;
4317;SDS011;2172;53.576;9.934;2023-09-19T06:36:20;8.23;;;3.13;;
4317;SDS011;2172;53.576;9.934;2023-09-19T06:38:47;7.80;;;3.27;;
4317;SDS011;2172;53.576;9.934;2023-09-19T06:41:16;6.23;;;2.60;;
4317;SDS011;2172;53.576;9.934;2023-09-19T06:43:44;6.10;;;3.07;;
4317;SDS011;2172;53.576;9.934;2023-09-19T06:46:13;6.90;;;2.53;;
4317;SDS011;2172;53.576;9.934;2023-09-19T06:48:40;9.60;;;3.43;;
4317;SDS011;2172;53.576;9.934;2023-09-19T06:51:09;7.03;;;3.37;;
4317;SDS011;2172;53.576;9.934;2023-09-19T06:53:36;9.77;;;3.60;;
4317;SDS011;2172;53.576;9.934;2023-09-19T06:56:05;10.50;;;4.40;;
4317;SDS011;2172;53.576;9.934;2023-09-19T06:58:33;7.07;;;3.33;;
4317;SDS011;2172;53.576;9.934;2023-09-19T07:01:02;9.97;;;5.40;;
4317;SDS011;2172;53.576;9.934;2023-09-19T07:03:30;7.40;;;4.07;;
4317;SDS011;2172;53.576;9.934;2023-09-19T07:05:59;8.57;;;2.63;;
4317;SDS011;2172;53.576;9.934;2023-09-19T07:08:29;9.70;;;4.13;;
4317;SDS011;2172;53.576;9.934;2023-09-19T07:10:57;7.77;;;3.43;;
4317;SDS011;2172;53.576;9.934;2023-09-19T07:13:25;7.10;;;3.40;;
4317;SDS011;2172;53.576;9.934;2023-09-19T07:15:53;7.93;;;3.17;;
4317;SDS011;2172;53.576;9.934;2023-09-19T07:18:21;7.43;;;2.80;;
4317;SDS011;2172;53.576;9.934;2023-09-19T07:20:49;10.43;;;4.10;;
4317;SDS011;2172;53.576;9.934;2023-09-19T07:23:17;10.57;;;3.50;;
4317;SDS011;2172;53.576;9.934;2023-09-19T07:25:47;7.30;;;3.47;;
4317;SDS011;2172;53.576;9.934;2023-09-19T07:28:15;13.33;;;3.43;;
4317;SDS011;2172;53.576;9.934;2023-09-19T07:30:42;10.10;;;3.03;;
4317;SDS011;2172;53.576;9.934;2023-09-19T07:33:10;13.63;;;3.37;;
4317;SDS011;2172;53.576;9.934;2023-09-19T07:35:38;6.70;;;3.20;;
4317;SDS011;2172;53.576;9.934;2023-09-19T07:38:07;8.37;;;3.17;;
4317;SDS011;2172;53.576;9.934;2023-09-19T07:40:36;5.60;;;3.00;;
4317;SDS011;2172;53.576;9.934;2023-09-19T07:43:04;10.00;;;3.37;;
4317;SDS011;2172;53.576;9.934;2023-09-19T07:45:32;11.43;;;4.00;;
4317;SDS011;2172;53.576;9.934;2023-09-19T07:48:01;11.60;;;3.40;;
4317;SDS011;2172;53.576;9.934;2023-09-19T07:50:33;10.27;;;3.50;;
4317;SDS011;2172;53.576;9.934;2023-09-19T07:53:02;7.70;;;3.60;;
4317;SDS011;2172;53.576;9.934;2023-09-19T07:55:31;9.87;;;3.80;;
4317;SDS011;2172;53.576;9.934;2023-09-19T07:57:59;17.77;;;4.07;;
4317;SDS011;2172;53.576;9.934;2023-09-19T08:00:29;8.50;;;3.30;;
4317;SDS011;2172;53.576;9.934;2023-09-19T08:03:19;10.27;;;3.93;;
4317;SDS011;2172;53.576;9.934;2023-09-19T08:05:47;9.93;;;4.00;;
4317;SDS011;2172;53.576;9.934;2023-09-19T08:08:14;12.40;;;4.40;;
4317;SDS011;2172;53.576;9.934;2023-09-19T08:10:43;8.70;;;4.33;;
4317;SDS011;2172;53.576;9.934;2023-09-19T08:13:14;13.00;;;5.40;;
4317;SDS011;2172;53.576;9.934;2023-09-19T08:15:43;10.50;;;5.87;;
4317;SDS011;2172;53.576;9.934;2023-09-19T08:18:11;11.37;;;4.63;;
4317;SDS011;2172;53.576;9.934;2023-09-19T08:20:39;12.63;;;4.70;;
4317;SDS011;2172;53.576;9.934;2023-09-19T08:23:07;10.37;;;4.40;;
4317;SDS011;2172;53.576;9.934;2023-09-19T08:25:35;14.07;;;4.17;;
4317;SDS011;2172;53.576;9.934;2023-09-19T08:28:05;10.93;;;4.53;;
4317;SDS011;2172;53.576;9.934;2023-09-19T08:30:37;7.73;;;4.33;;
4317;SDS011;2172;53.576;9.934;2023-09-19T08:33:05;8.57;;;4.83;;
4317;SDS011;2172;53.576;9.934;2023-09-19T08:35:33;10.23;;;4.80;;
4317;SDS011;2172;53.576;9.934;2023-09-19T08:38:01;7.90;;;4.30;;
4317;SDS011;2172;53.576;9.934;2023-09-19T08:40:29;9.77;;;4.20;;
4317;SDS011;2172;53.576;9.934;2023-09-19T08:42:58;10.97;;;4.80;;
4317;SDS011;2172;53.576;9.934;2023-09-19T08:45:28;13.73;;;6.07;;
4317;SDS011;2172;53.576;9.934;2023-09-19T08:47:56;9.57;;;5.13;;
4317;SDS011;2172;53.576;9.934;2023-09-19T08:50:31;8.57;;;3.90;;
4317;SDS011;2172;53.576;9.934;2023-09-19T08:53:05;12.30;;;4.70;;
4317;SDS011;2172;53.576;9.934;2023-09-19T08:55:38;10.43;;;4.90;;
4317;SDS011;2172;53.576;9.934;2023-09-19T08:58:09;7.17;;;3.73;;
4317;SDS011;2172;53.576;9.934;2023-09-19T09:00:40;10.70;;;4.53;;
4317;SDS011;2172;53.576;9.934;2023-09-19T09:03:11;10.67;;;3.47;;
4317;SDS011;2172;53.576;9.934;2023-09-19T09:05:41;13.73;;;4.30;;
4317;SDS011;2172;53.576;9.934;2023-09-19T09:08:09;12.67;;;4.40;;
4317;SDS011;2172;53.576;9.934;2023-09-19T09:10:37;8.50;;;4.37;;
4317;SDS011;2172;53.576;9.934;2023-09-19T09:13:06;13.20;;;4.63;;
4317;SDS011;2172;53.576;9.934;2023-09-19T09:15:35;8.80;;;4.30;;
4317;SDS011;2172;53.576;9.934;2023-09-19T09:18:04;9.63;;;4.10;;
4317;SDS011;2172;53.576;9.934;2023-09-19T09:20:32;10.37;;;4.50;;
4317;SDS011;2172;53.576;9.934;2023-09-19T09:23:00;12.57;;;5.37;;
4317;SDS011;2172;53.576;9.934;2023-09-19T09:25:47;9.10;;;4.20;;
4317;SDS011;2172;53.576;9.934;2023-09-19T09:28:21;14.40;;;4.20;;
4317;SDS011;2172;53.576;9.934;2023-09-19T09:30:49;10.43;;;3.37;;
4317;SDS011;2172;53.576;9.934;2023-09-19T09:33:18;11.57;;;3.97;;
4317;SDS011;2172;53.576;9.934;2023-09-19T09:35:50;10.60;;;4.20;;
4317;SDS011;2172;53.576;9.934;2023-09-19T09:38:19;16.00;;;4.73;;
4317;SDS011;2172;53.576;9.934;2023-09-19T09:40:52;13.20;;;3.23;;
4317;SDS011;2172;53.576;9.934;2023-09-19T09:43:25;9.23;;;3.60;;
4317;SDS011;2172;53.576;9.934;2023-09-19T09:46:10;10.10;;;2.97;;
4317;SDS011;2172;53.576;9.934;2023-09-19T09:48:57;6.37;;;2.97;;
4317;SDS011;2172;53.576;9.934;2023-09-19T09:51:44;9.97;;;2.93;;
4317;SDS011;2172;53.576;9.934;2023-09-19T09:54:14;9.83;;;3.70;;
4317;SDS011;2172;53.576;9.934;2023-09-19T09:56:52;6.67;;;3.00;;
4317;SDS011;2172;53.576;9.934;2023-09-19T09:59:44;8.53;;;2.83;;
4317;SDS011;2172;53.576;9.934;2023-09-19T10:02:14;9.03;;;3.37;;
4317;SDS011;2172;53.576;9.934;2023-09-19T10:04:50;9.40;;;3.40;;
4317;SDS011;2172;53.576;9.934;2023-09-19T10:07:25;4.53;;;2.30;;
4317;SDS011;2172;53.576;9.934;2023-09-19T10:09:57;10.80;;;3.70;;
4317;SDS011;2172;53.576;9.934;2023-09-19T10:12:36;9.73;;;3.37;;
4317;SDS011;2172;53.576;9.934;2023-09-19T10:15:09;9.23;;;3.13;;
4317;SDS011;2172;53.576;9.934;2023-09-19T10:17:42;7.80;;;2.73;;
4317;SDS011;2172;53.576;9.934;2023-09-19T10:20:15;5.30;;;2.60;;
4317;SDS011;2172;53.576;9.934;2023-09-19T10:22:49;9.40;;;3.03;;
4317;SDS011;2172;53.576;9.934;2023-09-19T10:25:25;6.60;;;2.63;;
4317;SDS011;2172;53.576;9.934;2023-09-19T10:27:56;6.03;;;2.03;;
4317;SDS011;2172;53.576;9.934;2023-09-19T10:30:26;9.70;;;2.83;;
4317;SDS011;2172;53.576;9.934;2023-09-19T10:32:57;7.53;;;2.90;;
4317;SDS011;2172;53.576;9.934;2023-09-19T10:35:29;6.40;;;2.70;;
4317;SDS011;2172;53.576;9.934;2023-09-19T10:37:57;6.33;;;2.20;;
4317;SDS011;2172;53.576;9.934;2023-09-19T10:40:26;6.50;;;3.10;;
4317;SDS011;2172;53.576;9.934;2023-09-19T10:42:59;7.23;;;3.10;;
4317;SDS011;2172;53.576;9.934;2023-09-19T10:45:30;11.50;;;2.77;;
4317;SDS011;2172;53.576;9.934;2023-09-19T10:47:59;5.83;;;2.57;;
4317;SDS011;2172;53.576;9.934;2023-09-19T10:50:30;6.70;;;2.77;;
4317;SDS011;2172;53.576;9.934;2023-09-19T10:53:00;6.67;;;2.77;;
4317;SDS011;2172;53.576;9.934;2023-09-19T10:55:30;6.13;;;2.60;;
4317;SDS011;2172;53.576;9.934;2023-09-19T10:58:00;9.17;;;3.10;;
4317;SDS011;2172;53.576;9.934;2023-09-19T11:00:49;10.90;;;3.50;;
4317;SDS011;2172;53.576;9.934;2023-09-19T11:03:19;6.03;;;2.33;;
4317;SDS011;2172;53.576;9.934;2023-09-19T11:06:09;6.13;;;3.10;;
4317;SDS011;2172;53.576;9.934;2023-09-19T11:08:55;6.83;;;2.70;;
4317;SDS011;2172;53.576;9.934;2023-09-19T11:11:39;6.90;;;2.70;;
4317;SDS011;2172;53.576;9.934;2023-09-19T11:14:30;7.37;;;3.13;;
4317;SDS011;2172;53.576;9.934;2023-09-19T11:20:17;6.17;;;2.37;;
4317;SDS011;2172;53.576;9.934;2023-09-19T11:25:48;6.20;;;2.20;;
4317;SDS011;2172;53.576;9.934;2023-09-19T11:28:30;8.60;;;2.40;;
4317;SDS011;2172;53.576;9.934;2023-09-19T11:37:15;7.00;;;2.23;;
4317;SDS011;2172;53.576;9.934;2023-09-19T11:40:33;6.70;;;2.30;;
4317;SDS011;2172;53.576;9.934;2023-09-19T11:43:06;8.00;;;2.97;;
4317;SDS011;2172;53.576;9.934;2023-09-19T11:46:08;4.83;;;2.90;;
4317;SDS011;2172;53.576;9.934;2023-09-19T11:48:39;7.97;;;2.63;;
4317;SDS011;2172;53.576;9.934;2023-09-19T11:51:16;4.17;;;2.50;;
4317;SDS011;2172;53.576;9.934;2023-09-19T11:53:54;7.97;;;2.97;;
4317;SDS011;2172;53.576;9.934;2023-09-19T11:56:22;5.17;;;2.33;;
4317;SDS011;2172;53.576;9.934;2023-09-19T11:59:13;11.10;;;3.00;;
4317;SDS011;2172;53.576;9.934;2023-09-19T12:01:50;7.30;;;2.40;;
4317;SDS011;2172;53.576;9.934;2023-09-19T12:04:33;7.93;;;2.43;;
4317;SDS011;2172;53.576;9.934;2023-09-19T12:07:03;12.70;;;2.40;;
4317;SDS011;2172;53.576;9.934;2023-09-19T12:09:37;7.87;;;2.90;;
4317;SDS011;2172;53.576;9.934;2023-09-19T12:12:06;10.33;;;3.10;;
4317;SDS011;2172;53.576;9.934;2023-09-19T12:14:35;7.87;;;2.93;;
4317;SDS011;2172;53.576;9.934;2023-09-19T12:17:04;11.50;;;3.67;;
4317;SDS011;2172;53.576;9.934;2023-09-19T12:19:32;11.00;;;2.80;;
4317;SDS011;2172;53.576;9.934;2023-09-19T12:22:00;5.73;;;2.40;;
4317;SDS011;2172;53.576;9.934;2023-09-19T12:24:30;9.07;;;3.60;;
4317;SDS011;2172;53.576;9.934;2023-09-19T12:27:01;7.23;;;3.27;;
4317;SDS011;2172;53.576;9.934;2023-09-19T12:29:31;10.13;;;3.50;;
4317;SDS011;2172;53.576;9.934;2023-09-19T12:32:00;4.53;;;2.80;;
4317;SDS011;2172;53.576;9.934;2023-09-19T12:34:31;9.60;;;3.17;;
4317;SDS011;2172;53.576;9.934;2023-09-19T12:37:04;7.90;;;2.70;;
4317;SDS011;2172;53.576;9.934;2023-09-19T12:39:37;6.23;;;2.70;;
4317;SDS011;2172;53.576;9.934;2023-09-19T12:42:07;10.37;;;3.30;;
4317;SDS011;2172;53.576;9.934;2023-09-19T12:44:36;7.17;;;3.27;;
4317;SDS011;2172;53.576;9.934;2023-09-19T12:47:17;8.90;;;3.10;;
4317;SDS011;2172;53.576;9.934;2023-09-19T12:50:07;6.80;;;2.77;;
4317;SDS011;2172;53.576;9.934;2023-09-19T12:52:41;10.87;;;3.20;;
4317;SDS011;2172;53.576;9.934;2023-09-19T12:55:20;11.30;;;3.30;;
4317;SDS011;2172;53.576;9.934;2023-09-19T12:57:58;8.43;;;3.47;;
4317;SDS011;2172;53.576;9.934;2023-09-19T13:00:32;6.90;;;3.20;;
4317;SDS011;2172;53.576;9.934;2023-09-19T13:03:16;9.23;;;3.80;;
4317;SDS011;2172;53.576;9.934;2023-09-19T13:05:51;7.83;;;3.20;;
4317;SDS011;2172;53.576;9.934;2023-09-19T13:08:20;12.27;;;4.47;;
4317;SDS011;2172;53.576;9.934;2023-09-19T13:11:04;10.40;;;4.10;;
4317;SDS011;2172;53.576;9.934;2023-09-19T13:13:35;5.63;;;2.40;;
4317;SDS011;2172;53.576;9.934;2023-09-19T13:16:03;9.60;;;3.87;;
4317;SDS011;2172;53.576;9.934;2023-09-19T13:18:48;8.30;;;3.37;;
4317;SDS011;2172;53.576;9.934;2023-09-19T13:21:26;12.10;;;3.03;;
4317;SDS011;2172;53.576;9.934;2023-09-19T13:26:48;8.40;;;3.23;;
4317;SDS011;2172;53.576;9.934;2023-09-19T13:29:15;5.40;;;2.90;;
4317;SDS011;2172;53.576;9.934;2023-09-19T13:31:45;8.10;;;3.10;;
4317;SDS011;2172;53.576;9.934;2023-09-19T13:34:14;6.27;;;2.87;;
4317;SDS011;2172;53.576;9.934;2023-09-19T13:36:42;6.47;;;3.10;;
4317;SDS011;2172;53.576;9.934;2023-09-19T13:39:10;7.40;;;2.90;;
4317;SDS011;2172;53.576;9.934;2023-09-19T13:41:39;7.40;;;3.10;;
4317;SDS011;2172;53.576;9.934;2023-09-19T13:44:07;7.67;;;2.67;;
4317;SDS011;2172;53.576;9.934;2023-09-19T13:46:35;5.47;;;2.83;;
4317;SDS011;2172;53.576;9.934;2023-09-19T13:49:03;7.63;;;3.27;;
4317;SDS011;2172;53.576;9.934;2023-09-19T13:51:32;5.70;;;3.10;;
4317;SDS011;2172;53.576;9.934;2023-09-19T13:54:00;7.07;;;2.53;;
4317;SDS011;2172;53.576;9.934;2023-09-19T13:56:28;9.33;;;3.23;;
4317;SDS011;2172;53.576;9.934;2023-09-19T13:58:57;13.83;;;3.20;;
4317;SDS011;2172;53.576;9.934;2023-09-19T14:01:25;7.73;;;3.30;;
4317;SDS011;2172;53.576;9.934;2023-09-19T14:03:52;4.77;;;3.00;;
4317;SDS011;2172;53.576;9.934;2023-09-19T14:06:21;6.30;;;3.30;;
4317;SDS011;2172;53.576;9.934;2023-09-19T14:08:50;7.10;;;3.00;;
4317;SDS011;2172;53.576;9.934;2023-09-19T14:11:17;10.10;;;3.70;;
4317;SDS011;2172;53.576;9.934;2023-09-19T14:13:45;10.17;;;3.10;;
4317;SDS011;2172;53.576;9.934;2023-09-19T14:16:16;7.30;;;2.90;;
4317;SDS011;2172;53.576;9.934;2023-09-19T14:18:44;10.83;;;3.03;;
4317;SDS011;2172;53.576;9.934;2023-09-19T14:21:12;13.53;;;3.27;;
4317;SDS011;2172;53.576;9.934;2023-09-19T14:23:40;5.77;;;3.30;;
4317;SDS011;2172;53.576;9.934;2023-09-19T14:26:10;8.37;;;2.90;;
4317;SDS011;2172;53.576;9.934;2023-09-19T14:28:38;7.43;;;3.07;;
4317;SDS011;2172;53.576;9.934;2023-09-19T14:31:06;9.73;;;3.87;;
4317;SDS011;2172;53.576;9.934;2023-09-19T14:33:34;6.63;;;2.97;;
4317;SDS011;2172;53.576;9.934;2023-09-19T14:36:03;10.77;;;3.03;;
4317;SDS011;2172;53.576;9.934;2023-09-19T14:38:32;8.60;;;2.60;;
4317;SDS011;2172;53.576;9.934;2023-09-19T14:41:00;7.57;;;2.87;;
4317;SDS011;2172;53.576;9.934;2023-09-19T14:43:30;17.00;;;3.87;;
4317;SDS011;2172;53.576;9.934;2023-09-19T14:46:02;7.53;;;3.03;;
4317;SDS011;2172;53.576;9.934;2023-09-19T14:48:30;9.63;;;2.73;;
4317;SDS011;2172;53.576;9.934;2023-09-19T14:51:01;7.67;;;2.57;;
4317;SDS011;2172;53.576;9.934;2023-09-19T14:53:29;11.53;;;3.50;;
4317;SDS011;2172;53.576;9.934;2023-09-19T14:55:59;6.50;;;2.60;;
4317;SDS011;2172;53.576;9.934;2023-09-19T14:58:29;9.13;;;3.17;;
4317;SDS011;2172;53.576;9.934;2023-09-19T15:01:04;6.37;;;3.00;;
4317;SDS011;2172;53.576;9.934;2023-09-19T15:03:32;8.93;;;3.30;;
4317;SDS011;2172;53.576;9.934;2023-09-19T15:06:01;8.27;;;2.80;;
4317;SDS011;2172;53.576;9.934;2023-09-19T15:08:30;9.60;;;3.17;;
4317;SDS011;2172;53.576;9.934;2023-09-19T15:10:59;6.70;;;2.97;;
4317;SDS011;2172;53.576;9.934;2023-09-19T15:13:30;7.37;;;3.00;;
4317;SDS011;2172;53.576;9.934;2023-09-19T15:15:58;7.20;;;2.90;;
4317;SDS011;2172;53.576;9.934;2023-09-19T15:18:27;9.40;;;3.10;;
4317;SDS011;2172;53.576;9.934;2023-09-19T15:20:55;7.93;;;2.97;;
4317;SDS011;2172;53.576;9.934;2023-09-19T15:23:23;9.13;;;3.57;;
4317;SDS011;2172;53.576;9.934;2023-09-19T15:25:50;4.90;;;3.03;;
4317;SDS011;2172;53.576;9.934;2023-09-19T15:28:18;9.90;;;3.60;;
4317;SDS011;2172;53.576;9.934;2023-09-19T15:30:49;7.37;;;2.53;;
4317;SDS011;2172;53.576;9.934;2023-09-19T15:33:17;5.20;;;2.63;;
4317;SDS011;2172;53.576;9.934;2023-09-19T15:35:44;7.10;;;3.20;;
4317;SDS011;2172;53.576;9.934;2023-09-19T15:38:12;9.40;;;3.20;;
4317;SDS011;2172;53.576;9.934;2023-09-19T15:40:45;4.83;;;2.80;;
4317;SDS011;2172;53.576;9.934;2023-09-19T15:43:13;9.60;;;3.13;;
4317;SDS011;2172;53.576;9.934;2023-09-19T15:45:42;7.17;;;3.23;;
4317;SDS011;2172;53.576;9.934;2023-09-19T15:48:11;8.30;;;3.03;;
4317;SDS011;2172;53.576;9.934;2023-09-19T15:50:38;9.23;;;3.63;;